sensor_id;sensor_type;location;lat;lon;timestamp;P1;durP1;ratioP1;P2;durP2;ratioP2
5690;SDS011;2870;42.680;23.364;2023-04-01T00:01:39;26.33;;;16.27;;
5690;SDS011;2870;42.680;23.364;2023-04-01T00:04:06;27.33;;;16.10;;
5690;SDS011;2870;42.680;23.364;2023-04-01T00:06:33;32.83;;;16.57;;
5690;SDS011;2870;42.680;23.364;2023-04-01T00:09:00;25.63;;;14.80;;
5690;SDS011;2870;42.680;23.364;2023-04-01T00:11:26;26.33;;;13.83;;
5690;SDS011;2870;42.680;23.364;2023-04-01T00:13:55;25.67;;;15.30;;
5690;SDS011;2870;42.680;23.364;2023-04-01T00:16:21;25.07;;;14.90;;
5690;SDS011;2870;42.680;23.364;2023-04-01T00:18:49;28.77;;;15.30;;
5690;SDS011;2870;42.680;23.364;2023-04-01T00:21:16;26.73;;;13.87;;
5690;SDS011;2870;42.680;23.364;2023-04-01T00:23:43;30.53;;;15.20;;
5690;SDS011;2870;42.680;23.364;2023-04-01T00:26:10;23.47;;;14.53;;
5690;SDS011;2870;42.680;23.364;2023-04-01T00:28:39;26.03;;;14.67;;
5690;SDS011;2870;42.680;23.364;2023-04-01T00:31:08;19.20;;;12.27;;
5690;SDS011;2870;42.680;23.364;2023-04-01T00:33:36;21.73;;;12.90;;
5690;SDS011;2870;42.680;23.364;2023-04-01T00:36:07;23.57;;;13.10;;
5690;SDS011;2870;42.680;23.364;2023-04-01T00:38:35;22.53;;;13.10;;
5690;SDS011;2870;42.680;23.364;2023-04-01T00:41:02;26.23;;;12.27;;
5690;SDS011;2870;42.680;23.364;2023-04-01T00:43:29;21.57;;;12.03;;
5690;SDS011;2870;42.680;23.364;2023-04-01T00:45:56;24.63;;;12.27;;
5690;SDS011;2870;42.680;23.364;2023-04-01T00:48:26;21.40;;;12.00;;
5690;SDS011;2870;42.680;23.364;2023-04-01T00:50:57;21.03;;;11.47;;
5690;SDS011;2870;42.680;23.364;2023-04-01T00:53:27;21.93;;;12.80;;
5690;SDS011;2870;42.680;23.364;2023-04-01T00:55:57;20.87;;;12.17;;
5690;SDS011;2870;42.680;23.364;2023-04-01T00:58:27;23.67;;;13.10;;
5690;SDS011;2870;42.680;23.364;2023-04-01T01:00:58;21.93;;;12.53;;
5690;SDS011;2870;42.680;23.364;2023-04-01T01:03:27;19.23;;;11.30;;
5690;SDS011;2870;42.680;23.364;2023-04-01T01:05:58;26.50;;;10.93;;
5690;SDS011;2870;42.680;23.364;2023-04-01T01:08:42;34.53;;;13.03;;
5690;SDS011;2870;42.680;23.364;2023-04-01T01:11:19;19.60;;;12.03;;
5690;SDS011;2870;42.680;23.364;2023-04-01T01:13:54;29.23;;;15.30;;
5690;SDS011;2870;42.680;23.364;2023-04-01T01:16:25;21.63;;;13.03;;
5690;SDS011;2870;42.680;23.364;2023-04-01T01:18:58;24.10;;;11.30;;
5690;SDS011;2870;42.680;23.364;2023-04-01T01:21:47;19.90;;;11.20;;
5690;SDS011;2870;42.680;23.364;2023-04-01T01:24:31;28.60;;;11.53;;
5690;SDS011;2870;42.680;23.364;2023-04-01T01:27:09;18.90;;;12.67;;
5690;SDS011;2870;42.680;23.364;2023-04-01T01:29:47;19.10;;;11.30;;
5690;SDS011;2870;42.680;23.364;2023-04-01T01:32:38;19.53;;;10.30;;
5690;SDS011;2870;42.680;23.364;2023-04-01T01:35:22;20.00;;;10.97;;
5690;SDS011;2870;42.680;23.364;2023-04-01T01:37:53;24.63;;;10.17;;
5690;SDS011;2870;42.680;23.364;2023-04-01T01:40:22;14.40;;;9.23;;
5690;SDS011;2870;42.680;23.364;2023-04-01T01:42:53;17.30;;;9.30;;
5690;SDS011;2870;42.680;23.364;2023-04-01T01:45:23;18.47;;;11.43;;
5690;SDS011;2870;42.680;23.364;2023-04-01T01:47:52;20.60;;;9.10;;
5690;SDS011;2870;42.680;23.364;2023-04-01T01:50:22;13.67;;;9.53;;
5690;SDS011;2870;42.680;23.364;2023-04-01T01:52:51;16.67;;;8.10;;
5690;SDS011;2870;42.680;23.364;2023-04-01T01:55:26;18.43;;;9.20;;
5690;SDS011;2870;42.680;23.364;2023-04-01T01:57:55;16.73;;;9.60;;
5690;SDS011;2870;42.680;23.364;2023-04-01T02:00:25;14.80;;;9.30;;
5690;SDS011;2870;42.680;23.364;2023-04-01T02:02:53;18.93;;;8.90;;
5690;SDS011;2870;42.680;23.364;2023-04-01T02:05:21;19.57;;;9.80;;
5690;SDS011;2870;42.680;23.364;2023-04-01T02:07:54;21.10;;;8.67;;
5690;SDS011;2870;42.680;23.364;2023-04-01T02:10:26;16.60;;;8.70;;
5690;SDS011;2870;42.680;23.364;2023-04-01T02:12:58;17.53;;;8.83;;
5690;SDS011;2870;42.680;23.364;2023-04-01T02:15:28;16.93;;;9.23;;
5690;SDS011;2870;42.680;23.364;2023-04-01T02:17:58;16.67;;;8.70;;
5690;SDS011;2870;42.680;23.364;2023-04-01T02:20:27;13.83;;;8.60;;
5690;SDS011;2870;42.680;23.364;2023-04-01T02:22:56;23.40;;;9.20;;
5690;SDS011;2870;42.680;23.364;2023-04-01T02:25:26;24.53;;;9.33;;
5690;SDS011;2870;42.680;23.364;2023-04-01T02:27:55;23.03;;;9.00;;
5690;SDS011;2870;42.680;23.364;2023-04-01T02:30:24;21.77;;;9.30;;
5690;SDS011;2870;42.680;23.364;2023-04-01T02:32:52;20.77;;;10.30;;
5690;SDS011;2870;42.680;23.364;2023-04-01T02:35:21;19.50;;;9.07;;
5690;SDS011;2870;42.680;23.364;2023-04-01T02:37:50;14.03;;;7.77;;
5690;SDS011;2870;42.680;23.364;2023-04-01T02:40:19;15.47;;;8.60;;
5690;SDS011;2870;42.680;23.364;2023-04-01T02:42:46;16.83;;;8.30;;
5690;SDS011;2870;42.680;23.364;2023-04-01T02:45:13;21.10;;;8.30;;
5690;SDS011;2870;42.680;23.364;2023-04-01T02:47:40;24.30;;;9.53;;
5690;SDS011;2870;42.680;23.364;2023-04-01T02:50:08;16.40;;;8.10;;
5690;SDS011;2870;42.680;23.364;2023-04-01T02:52:35;21.87;;;9.13;;
5690;SDS011;2870;42.680;23.364;2023-04-01T02:55:05;15.60;;;8.90;;
5690;SDS011;2870;42.680;23.364;2023-04-01T02:57:32;20.13;;;10.10;;
5690;SDS011;2870;42.680;23.364;2023-04-01T02:59:59;20.70;;;9.40;;
5690;SDS011;2870;42.680;23.364;2023-04-01T03:02:26;21.17;;;10.70;;
5690;SDS011;2870;42.680;23.364;2023-04-01T03:04:53;20.57;;;10.47;;
5690;SDS011;2870;42.680;23.364;2023-04-01T03:07:20;22.47;;;10.13;;
5690;SDS011;2870;42.680;23.364;2023-04-01T03:09:47;28.50;;;11.60;;
5690;SDS011;2870;42.680;23.364;2023-04-01T03:12:15;24.27;;;11.73;;
5690;SDS011;2870;42.680;23.364;2023-04-01T03:14:42;22.70;;;12.30;;
5690;SDS011;2870;42.680;23.364;2023-04-01T03:17:09;17.10;;;10.20;;
5690;SDS011;2870;42.680;23.364;2023-04-01T03:19:36;30.77;;;12.53;;
5690;SDS011;2870;42.680;23.364;2023-04-01T03:22:02;34.47;;;11.57;;
5690;SDS011;2870;42.680;23.364;2023-04-01T03:24:29;20.50;;;11.77;;
5690;SDS011;2870;42.680;23.364;2023-04-01T03:26:56;21.77;;;11.20;;
5690;SDS011;2870;42.680;23.364;2023-04-01T03:29:24;20.07;;;12.60;;
5690;SDS011;2870;42.680;23.364;2023-04-01T03:31:51;20.47;;;12.47;;
5690;SDS011;2870;42.680;23.364;2023-04-01T03:34:17;24.30;;;13.27;;
5690;SDS011;2870;42.680;23.364;2023-04-01T03:36:44;19.90;;;14.47;;
5690;SDS011;2870;42.680;23.364;2023-04-01T03:39:11;30.10;;;14.40;;
5690;SDS011;2870;42.680;23.364;2023-04-01T03:41:38;25.97;;;13.87;;
5690;SDS011;2870;42.680;23.364;2023-04-01T03:44:05;30.80;;;16.10;;
5690;SDS011;2870;42.680;23.364;2023-04-01T03:46:33;27.37;;;14.27;;
5690;SDS011;2870;42.680;23.364;2023-04-01T03:49:00;23.13;;;13.20;;
5690;SDS011;2870;42.680;23.364;2023-04-01T03:51:27;24.27;;;13.93;;
5690;SDS011;2870;42.680;23.364;2023-04-01T03:53:54;24.03;;;13.50;;
5690;SDS011;2870;42.680;23.364;2023-04-01T03:56:21;19.67;;;12.23;;
5690;SDS011;2870;42.680;23.364;2023-04-01T03:58:48;20.20;;;12.53;;
5690;SDS011;2870;42.680;23.364;2023-04-01T04:01:16;25.60;;;13.97;;
5690;SDS011;2870;42.680;23.364;2023-04-01T04:03:47;26.53;;;14.30;;
5690;SDS011;2870;42.680;23.364;2023-04-01T04:06:14;33.60;;;13.07;;
5690;SDS011;2870;42.680;23.364;2023-04-01T04:08:42;27.53;;;12.90;;
5690;SDS011;2870;42.680;23.364;2023-04-01T04:11:09;26.90;;;12.70;;
5690;SDS011;2870;42.680;23.364;2023-04-01T04:13:36;23.53;;;12.27;;
5690;SDS011;2870;42.680;23.364;2023-04-01T04:16:03;23.23;;;12.60;;
5690;SDS011;2870;42.680;23.364;2023-04-01T04:18:30;21.03;;;11.87;;
5690;SDS011;2870;42.680;23.364;2023-04-01T04:20:58;22.30;;;11.40;;
5690;SDS011;2870;42.680;23.364;2023-04-01T04:23:25;19.40;;;10.57;;
5690;SDS011;2870;42.680;23.364;2023-04-01T04:25:54;24.70;;;11.07;;
5690;SDS011;2870;42.680;23.364;2023-04-01T04:28:22;21.50;;;11.20;;
5690;SDS011;2870;42.680;23.364;2023-04-01T04:30:49;18.13;;;10.07;;
5690;SDS011;2870;42.680;23.364;2023-04-01T04:33:16;29.60;;;11.17;;
5690;SDS011;2870;42.680;23.364;2023-04-01T04:35:42;30.37;;;11.50;;
5690;SDS011;2870;42.680;23.364;2023-04-01T04:38:11;16.83;;;9.90;;
5690;SDS011;2870;42.680;23.364;2023-04-01T04:40:38;19.97;;;11.27;;
5690;SDS011;2870;42.680;23.364;2023-04-01T04:43:06;21.00;;;10.77;;
5690;SDS011;2870;42.680;23.364;2023-04-01T04:45:33;20.00;;;11.87;;
5690;SDS011;2870;42.680;23.364;2023-04-01T04:47:59;28.57;;;10.47;;
5690;SDS011;2870;42.680;23.364;2023-04-01T04:50:26;32.70;;;10.97;;
5690;SDS011;2870;42.680;23.364;2023-04-01T04:52:53;31.97;;;13.00;;
5690;SDS011;2870;42.680;23.364;2023-04-01T04:55:21;22.97;;;12.93;;
5690;SDS011;2870;42.680;23.364;2023-04-01T04:57:48;29.30;;;11.63;;
5690;SDS011;2870;42.680;23.364;2023-04-01T05:00:15;19.53;;;12.20;;
5690;SDS011;2870;42.680;23.364;2023-04-01T05:02:42;19.70;;;10.83;;
5690;SDS011;2870;42.680;23.364;2023-04-01T05:05:09;21.63;;;11.63;;
5690;SDS011;2870;42.680;23.364;2023-04-01T05:07:36;18.23;;;10.40;;
5690;SDS011;2870;42.680;23.364;2023-04-01T05:10:03;14.97;;;9.87;;
5690;SDS011;2870;42.680;23.364;2023-04-01T05:12:32;23.23;;;11.20;;
5690;SDS011;2870;42.680;23.364;2023-04-01T05:15:01;20.93;;;10.77;;
5690;SDS011;2870;42.680;23.364;2023-04-01T05:17:28;19.13;;;9.80;;
5690;SDS011;2870;42.680;23.364;2023-04-01T05:19:55;18.60;;;10.20;;
5690;SDS011;2870;42.680;23.364;2023-04-01T05:22:22;16.17;;;9.47;;
5690;SDS011;2870;42.680;23.364;2023-04-01T05:24:49;31.33;;;10.87;;
5690;SDS011;2870;42.680;23.364;2023-04-01T05:27:16;17.57;;;10.27;;
5690;SDS011;2870;42.680;23.364;2023-04-01T05:29:44;16.33;;;10.30;;
5690;SDS011;2870;42.680;23.364;2023-04-01T05:32:11;18.80;;;10.30;;
5690;SDS011;2870;42.680;23.364;2023-04-01T05:34:38;22.70;;;9.83;;
5690;SDS011;2870;42.680;23.364;2023-04-01T05:37:05;23.00;;;10.40;;
5690;SDS011;2870;42.680;23.364;2023-04-01T05:39:35;12.80;;;9.63;;
5690;SDS011;2870;42.680;23.364;2023-04-01T05:42:02;18.83;;;10.00;;
5690;SDS011;2870;42.680;23.364;2023-04-01T05:44:29;16.00;;;9.40;;
5690;SDS011;2870;42.680;23.364;2023-04-01T05:46:57;21.03;;;9.17;;
5690;SDS011;2870;42.680;23.364;2023-04-01T05:49:24;16.57;;;10.60;;
5690;SDS011;2870;42.680;23.364;2023-04-01T05:51:51;14.90;;;8.47;;
5690;SDS011;2870;42.680;23.364;2023-04-01T05:54:18;18.77;;;10.63;;
5690;SDS011;2870;42.680;23.364;2023-04-01T05:56:45;17.53;;;9.63;;
5690;SDS011;2870;42.680;23.364;2023-04-01T05:59:12;19.40;;;8.50;;
5690;SDS011;2870;42.680;23.364;2023-04-01T06:01:39;14.70;;;8.50;;
5690;SDS011;2870;42.680;23.364;2023-04-01T06:04:09;18.83;;;10.10;;
5690;SDS011;2870;42.680;23.364;2023-04-01T06:06:39;20.93;;;10.13;;
5690;SDS011;2870;42.680;23.364;2023-04-01T06:09:10;16.80;;;8.50;;
5690;SDS011;2870;42.680;23.364;2023-04-01T06:11:42;13.13;;;8.03;;
5690;SDS011;2870;42.680;23.364;2023-04-01T06:14:23;17.47;;;9.47;;
5690;SDS011;2870;42.680;23.364;2023-04-01T06:17:02;18.40;;;9.13;;
5690;SDS011;2870;42.680;23.364;2023-04-01T06:19:44;17.63;;;10.17;;
5690;SDS011;2870;42.680;23.364;2023-04-01T06:22:22;19.00;;;10.83;;
5690;SDS011;2870;42.680;23.364;2023-04-01T06:25:07;19.47;;;9.90;;
5690;SDS011;2870;42.680;23.364;2023-04-01T06:27:56;31.17;;;9.93;;
5690;SDS011;2870;42.680;23.364;2023-04-01T06:30:35;20.67;;;9.70;;
5690;SDS011;2870;42.680;23.364;2023-04-01T06:33:29;16.40;;;8.77;;
5690;SDS011;2870;42.680;23.364;2023-04-01T06:36:17;130.53;;;14.00;;
5690;SDS011;2870;42.680;23.364;2023-04-01T06:39:21;15.77;;;7.73;;
5690;SDS011;2870;42.680;23.364;2023-04-01T06:41:59;17.30;;;8.50;;
5690;SDS011;2870;42.680;23.364;2023-04-01T06:44:41;27.13;;;8.13;;
5690;SDS011;2870;42.680;23.364;2023-04-01T06:47:26;13.90;;;7.20;;
5690;SDS011;2870;42.680;23.364;2023-04-01T06:50:01;20.57;;;8.57;;
5690;SDS011;2870;42.680;23.364;2023-04-01T06:52:39;16.30;;;8.37;;
5690;SDS011;2870;42.680;23.364;2023-04-01T06:55:17;19.90;;;7.73;;
5690;SDS011;2870;42.680;23.364;2023-04-01T06:57:52;19.53;;;8.97;;
5690;SDS011;2870;42.680;23.364;2023-04-01T07:00:25;18.63;;;7.83;;
5690;SDS011;2870;42.680;23.364;2023-04-01T07:02:59;19.77;;;8.63;;
5690;SDS011;2870;42.680;23.364;2023-04-01T07:05:33;14.90;;;8.13;;
5690;SDS011;2870;42.680;23.364;2023-04-01T07:08:03;12.57;;;7.97;;
5690;SDS011;2870;42.680;23.364;2023-04-01T07:10:35;15.80;;;9.00;;
5690;SDS011;2870;42.680;23.364;2023-04-01T07:13:11;15.60;;;8.00;;
5690;SDS011;2870;42.680;23.364;2023-04-01T07:15:43;19.23;;;8.10;;
5690;SDS011;2870;42.680;23.364;2023-04-01T07:18:18;19.13;;;8.00;;
5690;SDS011;2870;42.680;23.364;2023-04-01T07:20:48;32.20;;;10.60;;
5690;SDS011;2870;42.680;23.364;2023-04-01T07:23:21;19.47;;;9.13;;
5690;SDS011;2870;42.680;23.364;2023-04-01T07:25:52;14.73;;;8.30;;
5690;SDS011;2870;42.680;23.364;2023-04-01T07:28:21;24.17;;;7.77;;
5690;SDS011;2870;42.680;23.364;2023-04-01T07:30:51;30.13;;;10.00;;
5690;SDS011;2870;42.680;23.364;2023-04-01T07:33:25;23.47;;;8.20;;
5690;SDS011;2870;42.680;23.364;2023-04-01T07:36:01;15.83;;;9.30;;
5690;SDS011;2870;42.680;23.364;2023-04-01T07:38:35;25.60;;;9.27;;
5690;SDS011;2870;42.680;23.364;2023-04-01T07:41:12;20.30;;;8.97;;
5690;SDS011;2870;42.680;23.364;2023-04-01T07:43:55;21.10;;;9.07;;
5690;SDS011;2870;42.680;23.364;2023-04-01T07:46:34;23.60;;;8.27;;
5690;SDS011;2870;42.680;23.364;2023-04-01T07:49:13;22.23;;;8.40;;
5690;SDS011;2870;42.680;23.364;2023-04-01T07:51:45;29.83;;;8.43;;
5690;SDS011;2870;42.680;23.364;2023-04-01T07:54:19;24.60;;;8.77;;
5690;SDS011;2870;42.680;23.364;2023-04-01T07:56:54;14.93;;;8.50;;
5690;SDS011;2870;42.680;23.364;2023-04-01T07:59:29;31.77;;;8.10;;
5690;SDS011;2870;42.680;23.364;2023-04-01T08:02:02;13.37;;;7.40;;
5690;SDS011;2870;42.680;23.364;2023-04-01T08:04:40;13.80;;;7.63;;
5690;SDS011;2870;42.680;23.364;2023-04-01T08:07:15;21.83;;;7.70;;
5690;SDS011;2870;42.680;23.364;2023-04-01T08:09:47;11.03;;;6.30;;
5690;SDS011;2870;42.680;23.364;2023-04-01T08:12:21;13.30;;;6.80;;
5690;SDS011;2870;42.680;23.364;2023-04-01T08:15:02;12.57;;;6.73;;
5690;SDS011;2870;42.680;23.364;2023-04-01T08:17:40;15.20;;;6.53;;
5690;SDS011;2870;42.680;23.364;2023-04-01T08:20:18;15.67;;;6.63;;
5690;SDS011;2870;42.680;23.364;2023-04-01T08:22:57;17.60;;;6.80;;
5690;SDS011;2870;42.680;23.364;2023-04-01T08:25:32;12.90;;;7.53;;
5690;SDS011;2870;42.680;23.364;2023-04-01T08:28:04;21.33;;;7.40;;
5690;SDS011;2870;42.680;23.364;2023-04-01T08:30:40;12.70;;;7.27;;
5690;SDS011;2870;42.680;23.364;2023-04-01T08:33:12;16.40;;;7.07;;
5690;SDS011;2870;42.680;23.364;2023-04-01T08:35:45;18.80;;;7.20;;
5690;SDS011;2870;42.680;23.364;2023-04-01T08:38:16;12.93;;;6.20;;
5690;SDS011;2870;42.680;23.364;2023-04-01T08:41:01;10.77;;;6.30;;
5690;SDS011;2870;42.680;23.364;2023-04-01T08:43:49;21.60;;;6.07;;
5690;SDS011;2870;42.680;23.364;2023-04-01T08:46:33;14.67;;;6.70;;
5690;SDS011;2870;42.680;23.364;2023-04-01T08:49:21;13.10;;;6.40;;
5690;SDS011;2870;42.680;23.364;2023-04-01T08:52:11;22.40;;;7.37;;
5690;SDS011;2870;42.680;23.364;2023-04-01T08:54:48;11.10;;;6.53;;
5690;SDS011;2870;42.680;23.364;2023-04-01T08:57:34;15.93;;;6.13;;
5690;SDS011;2870;42.680;23.364;2023-04-01T09:00:12;17.60;;;6.57;;
5690;SDS011;2870;42.680;23.364;2023-04-01T09:05:58;28.20;;;7.10;;
5690;SDS011;2870;42.680;23.364;2023-04-01T09:08:50;27.77;;;6.13;;
5690;SDS011;2870;42.680;23.364;2023-04-01T09:11:31;12.30;;;6.33;;
5690;SDS011;2870;42.680;23.364;2023-04-01T09:14:33;12.50;;;5.87;;
5690;SDS011;2870;42.680;23.364;2023-04-01T09:23:10;16.40;;;5.53;;
5690;SDS011;2870;42.680;23.364;2023-04-01T09:26:02;9.17;;;4.67;;
5690;SDS011;2870;42.680;23.364;2023-04-01T09:28:44;11.77;;;4.93;;
5690;SDS011;2870;42.680;23.364;2023-04-01T09:31:27;11.53;;;5.43;;
5690;SDS011;2870;42.680;23.364;2023-04-01T09:37:18;9.13;;;5.30;;
5690;SDS011;2870;42.680;23.364;2023-04-01T09:39:51;8.37;;;5.63;;
5690;SDS011;2870;42.680;23.364;2023-04-01T09:42:42;12.77;;;5.97;;
5690;SDS011;2870;42.680;23.364;2023-04-01T09:45:16;11.40;;;5.57;;
5690;SDS011;2870;42.680;23.364;2023-04-01T09:48:08;13.23;;;5.40;;
5690;SDS011;2870;42.680;23.364;2023-04-01T09:50:43;9.27;;;4.63;;
5690;SDS011;2870;42.680;23.364;2023-04-01T09:53:19;11.23;;;6.00;;
5690;SDS011;2870;42.680;23.364;2023-04-01T10:11:59;16.20;;;7.70;;
5690;SDS011;2870;42.680;23.364;2023-04-01T10:15:09;12.93;;;7.40;;
5690;SDS011;2870;42.680;23.364;2023-04-01T10:18:00;13.33;;;6.13;;
5690;SDS011;2870;42.680;23.364;2023-04-01T10:20:59;10.20;;;5.03;;
5690;SDS011;2870;42.680;23.364;2023-04-01T10:23:49;12.47;;;5.80;;
5690;SDS011;2870;42.680;23.364;2023-04-01T10:29:45;13.30;;;5.77;;
5690;SDS011;2870;42.680;23.364;2023-04-01T10:32:32;12.20;;;5.40;;
5690;SDS011;2870;42.680;23.364;2023-04-01T10:35:38;20.50;;;6.30;;
5690;SDS011;2870;42.680;23.364;2023-04-01T10:41:42;14.10;;;6.30;;
5690;SDS011;2870;42.680;23.364;2023-04-01T10:44:58;12.10;;;6.20;;
5690;SDS011;2870;42.680;23.364;2023-04-01T10:53:42;13.73;;;6.93;;
5690;SDS011;2870;42.680;23.364;2023-04-01T10:56:22;14.70;;;5.87;;
5690;SDS011;2870;42.680;23.364;2023-04-01T10:59:21;13.23;;;5.70;;
5690;SDS011;2870;42.680;23.364;2023-04-01T11:02:22;15.87;;;8.27;;
5690;SDS011;2870;42.680;23.364;2023-04-01T11:20:38;13.10;;;6.60;;
5690;SDS011;2870;42.680;23.364;2023-04-01T11:23:34;16.97;;;5.30;;
5690;SDS011;2870;42.680;23.364;2023-04-01T11:26:14;23.93;;;7.67;;
5690;SDS011;2870;42.680;23.364;2023-04-01T11:32:01;16.47;;;5.77;;
5690;SDS011;2870;42.680;23.364;2023-04-01T11:34:37;13.67;;;6.00;;
5690;SDS011;2870;42.680;23.364;2023-04-01T11:37:19;33.93;;;6.50;;
5690;SDS011;2870;42.680;23.364;2023-04-01T11:39:59;19.90;;;7.37;;
5690;SDS011;2870;42.680;23.364;2023-04-01T11:42:39;12.90;;;6.40;;
5690;SDS011;2870;42.680;23.364;2023-04-01T11:45:15;15.63;;;7.00;;
5690;SDS011;2870;42.680;23.364;2023-04-01T11:47:54;10.40;;;4.03;;
5690;SDS011;2870;42.680;23.364;2023-04-01T11:50:32;19.20;;;4.93;;
5690;SDS011;2870;42.680;23.364;2023-04-01T11:53:13;11.03;;;4.50;;
5690;SDS011;2870;42.680;23.364;2023-04-01T11:56:02;9.60;;;4.47;;
5690;SDS011;2870;42.680;23.364;2023-04-01T11:58:42;12.30;;;5.33;;
5690;SDS011;2870;42.680;23.364;2023-04-01T12:01:29;11.03;;;5.10;;
5690;SDS011;2870;42.680;23.364;2023-04-01T12:04:17;12.80;;;5.77;;
5690;SDS011;2870;42.680;23.364;2023-04-01T12:07:03;28.00;;;13.10;;
5690;SDS011;2870;42.680;23.364;2023-04-01T12:09:42;26.50;;;7.30;;
5690;SDS011;2870;42.680;23.364;2023-04-01T12:12:20;14.60;;;5.77;;
5690;SDS011;2870;42.680;23.364;2023-04-01T12:14:59;12.27;;;5.50;;
5690;SDS011;2870;42.680;23.364;2023-04-01T12:17:39;18.03;;;6.43;;
5690;SDS011;2870;42.680;23.364;2023-04-01T12:20:24;15.43;;;6.73;;
5690;SDS011;2870;42.680;23.364;2023-04-01T12:22:59;14.93;;;6.83;;
5690;SDS011;2870;42.680;23.364;2023-04-01T12:25:43;18.63;;;6.40;;
5690;SDS011;2870;42.680;23.364;2023-04-01T12:28:25;13.30;;;6.87;;
5690;SDS011;2870;42.680;23.364;2023-04-01T12:31:06;11.23;;;6.97;;
5690;SDS011;2870;42.680;23.364;2023-04-01T12:33:52;9.67;;;6.30;;
5690;SDS011;2870;42.680;23.364;2023-04-01T12:36:31;13.00;;;7.53;;
5690;SDS011;2870;42.680;23.364;2023-04-01T12:39:17;12.17;;;6.37;;
5690;SDS011;2870;42.680;23.364;2023-04-01T12:42:00;8.13;;;5.70;;
5690;SDS011;2870;42.680;23.364;2023-04-01T12:44:39;24.03;;;6.27;;
5690;SDS011;2870;42.680;23.364;2023-04-01T12:47:22;9.73;;;5.87;;
5690;SDS011;2870;42.680;23.364;2023-04-01T12:52:59;13.07;;;6.07;;
5690;SDS011;2870;42.680;23.364;2023-04-01T12:55:38;13.30;;;7.20;;
5690;SDS011;2870;42.680;23.364;2023-04-01T12:58:10;12.23;;;6.33;;
5690;SDS011;2870;42.680;23.364;2023-04-01T13:00:55;12.40;;;6.10;;
5690;SDS011;2870;42.680;23.364;2023-04-01T13:06:29;18.90;;;7.73;;
5690;SDS011;2870;42.680;23.364;2023-04-01T13:09:11;11.27;;;5.87;;
5690;SDS011;2870;42.680;23.364;2023-04-01T13:11:49;10.40;;;6.07;;
5690;SDS011;2870;42.680;23.364;2023-04-01T13:14:44;11.43;;;6.03;;
5690;SDS011;2870;42.680;23.364;2023-04-01T13:17:22;19.63;;;6.43;;
5690;SDS011;2870;42.680;23.364;2023-04-01T13:19:56;11.60;;;6.27;;
5690;SDS011;2870;42.680;23.364;2023-04-01T13:22:30;11.20;;;6.70;;
5690;SDS011;2870;42.680;23.364;2023-04-01T13:25:10;8.80;;;5.73;;
5690;SDS011;2870;42.680;23.364;2023-04-01T13:27:51;11.27;;;5.83;;
5690;SDS011;2870;42.680;23.364;2023-04-01T13:30:25;15.87;;;7.37;;
5690;SDS011;2870;42.680;23.364;2023-04-01T13:32:58;16.20;;;9.00;;
5690;SDS011;2870;42.680;23.364;2023-04-01T13:35:34;14.50;;;6.80;;
5690;SDS011;2870;42.680;23.364;2023-04-01T13:38:32;15.13;;;7.77;;
5690;SDS011;2870;42.680;23.364;2023-04-01T13:41:12;8.47;;;6.07;;
5690;SDS011;2870;42.680;23.364;2023-04-01T13:43:50;10.40;;;6.03;;
5690;SDS011;2870;42.680;23.364;2023-04-01T13:49:37;11.30;;;5.90;;
5690;SDS011;2870;42.680;23.364;2023-04-01T13:52:21;13.33;;;7.03;;
5690;SDS011;2870;42.680;23.364;2023-04-01T13:55:14;9.30;;;5.57;;
5690;SDS011;2870;42.680;23.364;2023-04-01T13:58:04;18.90;;;11.10;;
5690;SDS011;2870;42.680;23.364;2023-04-01T14:00:50;22.23;;;11.30;;
5690;SDS011;2870;42.680;23.364;2023-04-01T14:03:30;16.30;;;11.20;;
5690;SDS011;2870;42.680;23.364;2023-04-01T14:09:08;15.80;;;7.90;;
5690;SDS011;2870;42.680;23.364;2023-04-01T14:11:45;18.63;;;8.80;;
5690;SDS011;2870;42.680;23.364;2023-04-01T14:14:26;17.17;;;9.37;;
5690;SDS011;2870;42.680;23.364;2023-04-01T14:17:17;13.20;;;9.03;;
5690;SDS011;2870;42.680;23.364;2023-04-01T14:20:02;13.17;;;7.10;;
5690;SDS011;2870;42.680;23.364;2023-04-01T14:22:50;12.50;;;6.63;;
5690;SDS011;2870;42.680;23.364;2023-04-01T14:28:45;9.57;;;6.70;;
5690;SDS011;2870;42.680;23.364;2023-04-01T14:31:23;13.80;;;6.50;;
5690;SDS011;2870;42.680;23.364;2023-04-01T14:34:15;12.90;;;6.93;;
5690;SDS011;2870;42.680;23.364;2023-04-01T14:36:51;17.40;;;7.03;;
5690;SDS011;2870;42.680;23.364;2023-04-01T14:39:35;14.13;;;7.10;;
5690;SDS011;2870;42.680;23.364;2023-04-01T14:42:18;10.53;;;6.37;;
5690;SDS011;2870;42.680;23.364;2023-04-01T14:45:14;9.63;;;5.50;;
5690;SDS011;2870;42.680;23.364;2023-04-01T14:47:55;12.90;;;6.37;;
5690;SDS011;2870;42.680;23.364;2023-04-01T14:50:26;10.93;;;5.00;;
5690;SDS011;2870;42.680;23.364;2023-04-01T14:52:57;7.87;;;4.73;;
5690;SDS011;2870;42.680;23.364;2023-04-01T14:55:27;9.03;;;4.97;;
5690;SDS011;2870;42.680;23.364;2023-04-01T14:57:58;6.73;;;4.40;;
5690;SDS011;2870;42.680;23.364;2023-04-01T15:00:37;12.30;;;5.23;;
5690;SDS011;2870;42.680;23.364;2023-04-01T15:03:24;10.13;;;5.50;;
5690;SDS011;2870;42.680;23.364;2023-04-01T15:05:56;8.47;;;5.50;;
5690;SDS011;2870;42.680;23.364;2023-04-01T15:08:41;10.40;;;5.30;;
5690;SDS011;2870;42.680;23.364;2023-04-01T15:11:22;11.43;;;5.43;;
5690;SDS011;2870;42.680;23.364;2023-04-01T15:16:54;7.63;;;3.90;;
5690;SDS011;2870;42.680;23.364;2023-04-01T15:19:31;6.57;;;4.43;;
5690;SDS011;2870;42.680;23.364;2023-04-01T15:22:17;9.57;;;5.30;;
5690;SDS011;2870;42.680;23.364;2023-04-01T15:25:05;7.47;;;4.90;;
5690;SDS011;2870;42.680;23.364;2023-04-01T15:27:47;11.87;;;4.40;;
5690;SDS011;2870;42.680;23.364;2023-04-01T15:30:26;14.80;;;5.00;;
5690;SDS011;2870;42.680;23.364;2023-04-01T15:33:11;8.20;;;5.23;;
5690;SDS011;2870;42.680;23.364;2023-04-01T15:35:49;7.30;;;4.57;;
5690;SDS011;2870;42.680;23.364;2023-04-01T15:38:27;12.20;;;5.40;;
5690;SDS011;2870;42.680;23.364;2023-04-01T15:41:03;12.30;;;5.80;;
5690;SDS011;2870;42.680;23.364;2023-04-01T15:43:40;10.57;;;5.50;;
5690;SDS011;2870;42.680;23.364;2023-04-01T15:46:12;10.90;;;6.07;;
5690;SDS011;2870;42.680;23.364;2023-04-01T15:48:50;10.77;;;6.47;;
5690;SDS011;2870;42.680;23.364;2023-04-01T15:51:35;8.70;;;5.53;;
5690;SDS011;2870;42.680;23.364;2023-04-01T15:57:24;5.80;;;4.20;;
5690;SDS011;2870;42.680;23.364;2023-04-01T16:03:01;5.60;;;4.13;;
5690;SDS011;2870;42.680;23.364;2023-04-01T16:05:42;7.20;;;5.03;;
5690;SDS011;2870;42.680;23.364;2023-04-01T16:08:37;8.30;;;5.57;;
5690;SDS011;2870;42.680;23.364;2023-04-01T16:11:23;9.97;;;5.70;;
5690;SDS011;2870;42.680;23.364;2023-04-01T16:14:05;7.47;;;5.13;;
5690;SDS011;2870;42.680;23.364;2023-04-01T16:16:47;14.33;;;9.13;;
5690;SDS011;2870;42.680;23.364;2023-04-01T16:19:36;7.60;;;5.40;;
5690;SDS011;2870;42.680;23.364;2023-04-01T16:22:09;11.00;;;7.10;;
5690;SDS011;2870;42.680;23.364;2023-04-01T16:24:43;8.60;;;6.10;;
5690;SDS011;2870;42.680;23.364;2023-04-01T16:27:14;10.27;;;7.00;;
5690;SDS011;2870;42.680;23.364;2023-04-01T16:29:47;8.10;;;5.77;;
5690;SDS011;2870;42.680;23.364;2023-04-01T16:32:21;9.73;;;6.60;;
5690;SDS011;2870;42.680;23.364;2023-04-01T16:34:58;10.13;;;6.10;;
5690;SDS011;2870;42.680;23.364;2023-04-01T16:37:43;8.50;;;5.87;;
5690;SDS011;2870;42.680;23.364;2023-04-01T16:40:16;10.10;;;6.40;;
5690;SDS011;2870;42.680;23.364;2023-04-01T16:42:52;9.07;;;6.50;;
5690;SDS011;2870;42.680;23.364;2023-04-01T16:45:28;13.73;;;6.43;;
5690;SDS011;2870;42.680;23.364;2023-04-01T16:48:06;7.47;;;5.73;;
5690;SDS011;2870;42.680;23.364;2023-04-01T16:50:39;9.00;;;6.20;;
5690;SDS011;2870;42.680;23.364;2023-04-01T16:53:17;9.93;;;6.40;;
5690;SDS011;2870;42.680;23.364;2023-04-01T16:55:48;9.53;;;6.20;;
5690;SDS011;2870;42.680;23.364;2023-04-01T16:58:18;9.23;;;5.30;;
5690;SDS011;2870;42.680;23.364;2023-04-01T17:00:52;6.47;;;4.80;;